createdAt,value
2022-09-26T00:00:31.309Z,99.90
2022-09-26T00:05:33.975Z,99.90
2022-09-26T00:10:35.838Z,99.90
2022-09-26T00:15:37.693Z,99.90
2022-09-26T00:20:39.559Z,99.90
2022-09-26T00:25:48.993Z,99.90
2022-09-26T00:30:51.064Z,99.90
2022-09-26T00:35:54.472Z,99.90
2022-09-26T00:40:56.563Z,99.90
2022-09-26T00:46:01.458Z,99.90
2022-09-26T00:51:04.349Z,99.90
2022-09-26T00:56:11.241Z,99.90
2022-09-26T01:01:13.710Z,99.90
2022-09-26T01:06:16.766Z,99.90
2022-09-26T01:11:19.318Z,99.90
2022-09-26T01:16:21.394Z,99.90
2022-09-26T01:21:38.635Z,99.90
2022-09-26T01:26:50.273Z,99.90
2022-09-26T01:32:16.768Z,99.90
2022-09-26T01:37:33.244Z,99.90
2022-09-26T01:43:05.204Z,99.90
2022-09-26T01:48:17.089Z,99.90
2022-09-26T01:53:26.036Z,99.90
2022-09-26T01:58:30.811Z,99.90
2022-09-26T02:03:38.438Z,99.90
2022-09-26T02:08:42.368Z,99.90
2022-09-26T02:13:55.632Z,99.90
2022-09-26T02:19:01.748Z,99.90
2022-09-26T02:24:03.730Z,99.90
2022-09-26T02:29:06.730Z,99.90
2022-09-26T02:34:08.849Z,99.90
2022-09-26T02:39:11.177Z,99.90
2022-09-26T02:44:39.054Z,99.90
2022-09-26T02:50:19.652Z,99.90
2022-09-26T02:55:24.072Z,99.90
2022-09-26T03:00:31.686Z,99.90
2022-09-26T03:05:35.189Z,99.90
2022-09-26T03:10:38.082Z,99.90
2022-09-26T03:15:42.372Z,99.90
2022-09-26T03:20:44.657Z,99.90
2022-09-26T03:26:12.551Z,99.90
2022-09-26T03:31:14.895Z,99.90
2022-09-26T03:36:16.832Z,99.90
2022-09-26T03:41:19.624Z,99.90
2022-09-26T03:46:21.508Z,99.90
2022-09-26T03:51:23.333Z,99.90
2022-09-26T03:56:26.919Z,99.90
2022-09-26T04:01:28.879Z,99.90
2022-09-26T04:06:30.777Z,99.90
2022-09-26T04:11:35.446Z,99.90
2022-09-26T04:16:37.301Z,99.90
2022-09-26T04:21:40.736Z,99.90
2022-09-26T04:26:44.274Z,99.90
2022-09-26T04:31:46.701Z,99.90
2022-09-26T04:36:50.180Z,99.90
2022-09-26T04:41:53.251Z,99.90
2022-09-26T04:46:55.193Z,99.90
2022-09-26T04:51:57.045Z,99.90
2022-09-26T04:57:00.354Z,99.90
2022-09-26T05:02:03.626Z,99.90
2022-09-26T05:07:05.652Z,99.90
2022-09-26T05:12:07.495Z,99.90
2022-09-26T05:17:11.026Z,99.90
2022-09-26T05:22:13.045Z,99.90
2022-09-26T05:27:15.268Z,99.90
2022-09-26T05:32:20.758Z,99.90
2022-09-26T05:37:22.593Z,99.90
2022-09-26T05:42:24.578Z,99.90
2022-09-26T05:47:31.309Z,99.90
2022-09-26T05:52:33.201Z,99.90
2022-09-26T05:57:35.050Z,99.90
2022-09-26T06:02:37.010Z,99.90
2022-09-26T06:07:38.914Z,99.90
2022-09-26T06:12:40.759Z,99.90
2022-09-26T06:17:42.599Z,99.90
2022-09-26T06:22:44.438Z,99.90
2022-09-26T06:27:46.531Z,99.90
2022-09-26T06:32:48.680Z,99.90
2022-09-26T06:37:50.521Z,99.90
2022-09-26T06:42:52.510Z,99.90
2022-09-26T06:47:54.783Z,99.90
2022-09-26T06:52:56.678Z,99.90
2022-09-26T06:57:58.757Z,99.90
2022-09-26T07:03:01.299Z,99.90
2022-09-26T07:08:04.807Z,99.90
2022-09-26T07:13:07.718Z,99.90
2022-09-26T07:18:10.229Z,99.90
2022-09-26T07:23:12.660Z,99.90
2022-09-26T07:28:14.506Z,99.90
2022-09-26T07:33:16.445Z,99.90
2022-09-26T07:38:18.274Z,99.90
2022-09-26T07:43:42.452Z,99.90
2022-09-26T07:49:03.649Z,99.90
2022-09-26T07:54:06.120Z,99.90
2022-09-26T07:59:08.473Z,99.90
2022-09-26T08:04:12.019Z,99.90
2022-09-26T08:09:13.993Z,99.90
2022-09-26T08:14:16.203Z,99.90
2022-09-26T08:19:18.100Z,99.90
2022-09-26T08:24:19.982Z,99.90
2022-09-26T08:29:30.900Z,99.90
2022-09-26T08:34:35.083Z,99.30
2022-09-26T08:39:36.953Z,96.00
2022-09-26T08:44:54.092Z,96.70
2022-09-26T08:50:01.736Z,95.80
2022-09-26T08:55:16.049Z,91.20
2022-09-26T09:00:26.055Z,90.50
2022-09-26T09:05:33.626Z,90.30
2022-09-26T09:10:47.485Z,88.10
2022-09-26T09:16:01.312Z,91.10
2022-09-26T09:21:41.810Z,93.60
2022-09-26T09:32:48.113Z,91.70
2022-09-26T09:37:52.380Z,93.50
2022-09-26T09:43:09.126Z,93.30
2022-09-26T09:48:13.229Z,95.40
2022-09-26T09:53:50.865Z,92.30
2022-09-26T09:59:04.917Z,87.00
2022-09-26T10:04:26.248Z,80.10
2022-09-26T10:09:39.457Z,79.20
2022-09-26T10:14:51.405Z,84.70
2022-09-26T10:19:53.305Z,89.20
2022-09-26T10:25:17.949Z,89.40
2022-09-26T10:30:20.129Z,82.30
2022-09-26T10:35:40.357Z,80.70
2022-09-26T10:40:58.269Z,78.20
2022-09-26T10:46:09.314Z,74.50
2022-09-26T10:51:29.536Z,73.50
2022-09-26T10:56:35.869Z,75.20
2022-09-26T11:01:43.126Z,77.60
2022-09-26T11:06:45.501Z,80.00
2022-09-26T11:11:50.657Z,79.20
2022-09-26T11:16:55.136Z,79.70
2022-09-26T11:22:12.215Z,80.50
2022-09-26T11:27:38.630Z,81.40
2022-09-26T11:32:43.369Z,81.80
2022-09-26T11:37:51.245Z,83.60
2022-09-26T11:43:02.108Z,84.30
2022-09-26T11:48:39.106Z,85.70
2022-09-26T11:54:00.966Z,86.30
2022-09-26T11:59:15.491Z,87.60
2022-09-26T12:04:58.786Z,86.90
2022-09-26T12:10:12.436Z,86.20
2022-09-26T12:15:34.147Z,87.80
2022-09-26T12:21:12.981Z,84.90
2022-09-26T12:26:23.615Z,84.20
2022-09-26T12:31:47.678Z,84.10
2022-09-26T12:36:56.071Z,80.10
2022-09-26T12:42:15.331Z,77.30
2022-09-26T12:47:30.010Z,75.20
2022-09-26T12:52:54.428Z,73.80
2022-09-26T12:58:29.217Z,71.80
2022-09-26T13:03:49.764Z,71.40
2022-09-26T13:09:25.892Z,71.70
2022-09-26T13:14:47.653Z,73.80
2022-09-26T13:19:51.537Z,71.80
2022-09-26T13:25:18.933Z,72.20
2022-09-26T13:30:28.504Z,71.50
2022-09-26T13:35:35.675Z,71.90
2022-09-26T13:40:57.904Z,72.00
2022-09-26T13:46:16.140Z,74.20
2022-09-26T13:51:24.807Z,74.00
2022-09-26T13:56:36.159Z,72.60
2022-09-26T14:02:15.979Z,74.50
2022-09-26T14:07:58.879Z,76.80
2022-09-26T14:13:06.561Z,77.60
2022-09-26T14:18:45.685Z,77.30
2022-09-26T14:23:49.379Z,78.40
2022-09-26T14:28:55.415Z,79.50
2022-09-26T14:34:21.504Z,79.80
2022-09-26T14:39:44.074Z,80.00
2022-09-26T14:44:50.556Z,80.60
2022-09-26T14:49:55.092Z,80.70
2022-09-26T14:55:01.230Z,82.70
2022-09-26T15:00:23.946Z,82.60
2022-09-26T15:05:26.113Z,82.20
2022-09-26T15:10:41.882Z,82.60
2022-09-26T15:16:08.246Z,83.80
2022-09-26T15:21:22.304Z,83.00
2022-09-26T15:26:26.991Z,83.60
2022-09-26T15:31:41.855Z,86.70
2022-09-26T15:36:45.563Z,87.10
2022-09-26T15:42:05.963Z,87.40
2022-09-26T15:47:28.442Z,86.80
2022-09-26T15:52:35.425Z,88.50
2022-09-26T15:57:37.337Z,90.00
2022-09-26T16:02:39.284Z,90.80
2022-09-26T16:07:47.947Z,92.40
2022-09-26T16:12:49.950Z,91.60
2022-09-26T16:17:54.048Z,93.60
2022-09-26T16:23:04.798Z,94.90
2022-09-26T16:28:10.433Z,96.60
2022-09-26T16:33:27.663Z,99.90
2022-09-26T16:38:33.639Z,99.90
2022-09-26T16:43:37.090Z,99.90
2022-09-26T16:48:52.104Z,99.90
2022-09-26T16:54:08.922Z,99.90
2022-09-26T16:59:37.014Z,99.90
2022-09-26T17:04:39.478Z,99.90
2022-09-26T17:09:42.842Z,99.90
2022-09-26T17:14:48.112Z,99.90
2022-09-26T17:19:56.748Z,99.90
2022-09-26T17:25:00.996Z,99.90
2022-09-26T17:30:05.069Z,99.90
2022-09-26T17:35:13.516Z,99.90
2022-09-26T17:40:19.524Z,99.90
2022-09-26T17:45:25.220Z,99.90
2022-09-26T17:50:29.554Z,99.90
2022-09-26T17:55:32.130Z,99.90
2022-09-26T18:00:38.297Z,99.90
2022-09-26T18:05:40.897Z,99.90
2022-09-26T18:10:50.212Z,99.90
2022-09-26T18:15:57.672Z,99.90
2022-09-26T18:21:04.001Z,99.90
2022-09-26T18:26:08.089Z,99.90
2022-09-26T18:31:11.312Z,99.90
2022-09-26T18:36:13.337Z,99.90
2022-09-26T18:41:18.773Z,99.90
2022-09-26T18:46:24.787Z,99.90
2022-09-26T18:51:27.568Z,99.90
2022-09-26T18:56:48.950Z,99.90
2022-09-26T19:01:51.210Z,99.90
2022-09-26T19:07:05.775Z,99.90
2022-09-26T19:12:11.463Z,99.90
2022-09-26T19:17:13.713Z,99.90
2022-09-26T19:22:17.396Z,99.90
2022-09-26T19:27:23.984Z,99.90
2022-09-26T19:32:38.302Z,99.90
2022-09-26T19:37:40.235Z,99.90
2022-09-26T19:42:42.429Z,99.90
2022-09-26T19:47:51.292Z,99.90
2022-09-26T19:52:54.347Z,99.90
2022-09-26T19:58:02.618Z,99.90
2022-09-26T20:03:04.579Z,99.90
2022-09-26T20:08:10.240Z,99.90
2022-09-26T20:13:12.420Z,99.90
2022-09-26T20:18:24.164Z,99.90
2022-09-26T20:23:26.637Z,99.90
2022-09-26T20:28:28.533Z,99.90
2022-09-26T20:33:30.466Z,99.90
2022-09-26T20:38:41.286Z,99.90
2022-09-26T20:43:44.727Z,99.90
2022-09-26T20:48:47.845Z,99.90
2022-09-26T20:53:50.466Z,99.90
2022-09-26T20:58:52.565Z,99.90
2022-09-26T21:03:55.381Z,99.90
2022-09-26T21:08:57.632Z,99.90
2022-09-26T21:13:59.642Z,99.90
2022-09-26T21:19:01.562Z,99.90
2022-09-26T21:24:03.847Z,99.90
2022-09-26T21:29:09.463Z,99.90
2022-09-26T21:34:23.571Z,99.90
2022-09-26T21:39:26.089Z,99.90
2022-09-26T21:44:32.090Z,99.90
2022-09-26T21:49:34.329Z,99.90
2022-09-26T21:54:39.673Z,99.90
2022-09-26T21:59:42.088Z,99.90
2022-09-26T22:04:43.970Z,99.90
2022-09-26T22:09:46.057Z,99.90
2022-09-26T22:14:48.128Z,99.90
2022-09-26T22:19:51.337Z,99.90
2022-09-26T22:24:54.050Z,99.90
2022-09-26T22:29:55.921Z,99.90
2022-09-26T22:34:57.843Z,99.90
2022-09-26T22:39:59.754Z,99.90
2022-09-26T22:45:01.898Z,99.90
2022-09-26T22:50:04.144Z,99.90
2022-09-26T22:55:07.891Z,99.90
2022-09-26T23:00:11.009Z,99.90
2022-09-26T23:05:12.912Z,99.90
2022-09-26T23:10:14.844Z,99.90
2022-09-26T23:15:18.324Z,99.90
2022-09-26T23:20:20.540Z,99.90
2022-09-26T23:25:22.495Z,99.90
2022-09-26T23:30:24.397Z,99.90
2022-09-26T23:35:26.404Z,99.90
2022-09-26T23:40:29.661Z,99.90
2022-09-26T23:45:31.597Z,99.90
2022-09-26T23:50:33.572Z,99.90
2022-09-26T23:55:35.672Z,99.90
